sensor_id;sensor_type;location;lat;lon;timestamp;temperature;humidity
3980;DHT22;2004;52.452;13.120;2023-08-24T00:04:25;17.50;99.90
3980;DHT22;2004;52.452;13.120;2023-08-24T00:12:15;17.40;99.90
3980;DHT22;2004;52.452;13.120;2023-08-24T00:20:06;17.40;99.90
3980;DHT22;2004;52.452;13.120;2023-08-24T00:28:00;17.30;99.90
3980;DHT22;2004;52.452;13.120;2023-08-24T00:35:51;17.20;99.90
3980;DHT22;2004;52.452;13.120;2023-08-24T00:43:42;17.20;99.90
3980;DHT22;2004;52.452;13.120;2023-08-24T00:51:32;17.20;99.90
3980;DHT22;2004;52.452;13.120;2023-08-24T00:59:24;17.10;99.90
3980;DHT22;2004;52.452;13.120;2023-08-24T01:07:16;17.00;99.90
3980;DHT22;2004;52.452;13.120;2023-08-24T01:15:20;16.90;99.90
3980;DHT22;2004;52.452;13.120;2023-08-24T01:31:24;16.90;99.90
3980;DHT22;2004;52.452;13.120;2023-08-24T01:39:24;16.90;99.90
3980;DHT22;2004;52.452;13.120;2023-08-24T01:47:21;17.00;99.90
3980;DHT22;2004;52.452;13.120;2023-08-24T01:55:13;16.90;99.90
3980;DHT22;2004;52.452;13.120;2023-08-24T02:03:05;16.90;99.90
3980;DHT22;2004;52.452;13.120;2023-08-24T02:10:55;16.90;99.90
3980;DHT22;2004;52.452;13.120;2023-08-24T02:18:46;16.90;99.90
3980;DHT22;2004;52.452;13.120;2023-08-24T02:26:36;17.00;99.90
3980;DHT22;2004;52.452;13.120;2023-08-24T02:34:27;17.00;99.90
3980;DHT22;2004;52.452;13.120;2023-08-24T02:42:18;17.00;99.90
3980;DHT22;2004;52.452;13.120;2023-08-24T02:50:08;17.00;99.90
3980;DHT22;2004;52.452;13.120;2023-08-24T02:57:59;17.10;99.90
3980;DHT22;2004;52.452;13.120;2023-08-24T03:06:06;17.10;99.90
3980;DHT22;2004;52.452;13.120;2023-08-24T03:13:57;17.20;99.90
3980;DHT22;2004;52.452;13.120;2023-08-24T03:21:48;17.30;99.90
3980;DHT22;2004;52.452;13.120;2023-08-24T03:29:38;17.30;99.90
3980;DHT22;2004;52.452;13.120;2023-08-24T03:37:29;17.40;99.90
3980;DHT22;2004;52.452;13.120;2023-08-24T03:45:20;17.40;99.90
3980;DHT22;2004;52.452;13.120;2023-08-24T03:53:12;17.50;99.90
3980;DHT22;2004;52.452;13.120;2023-08-24T04:01:03;17.50;99.90
3980;DHT22;2004;52.452;13.120;2023-08-24T04:08:54;17.60;99.90
3980;DHT22;2004;52.452;13.120;2023-08-24T04:16:44;17.60;99.90
3980;DHT22;2004;52.452;13.120;2023-08-24T04:24:35;17.70;99.90
3980;DHT22;2004;52.452;13.120;2023-08-24T04:32:27;17.70;99.90
3980;DHT22;2004;52.452;13.120;2023-08-24T04:40:18;17.70;99.90
3980;DHT22;2004;52.452;13.120;2023-08-24T04:48:09;17.70;99.90
3980;DHT22;2004;52.452;13.120;2023-08-24T04:55:59;17.80;99.90
3980;DHT22;2004;52.452;13.120;2023-08-24T05:03:50;17.80;99.90
3980;DHT22;2004;52.452;13.120;2023-08-24T05:11:42;17.90;99.90
3980;DHT22;2004;52.452;13.120;2023-08-24T05:19:34;18.00;99.90
3980;DHT22;2004;52.452;13.120;2023-08-24T05:27:24;18.00;99.90
3980;DHT22;2004;52.452;13.120;2023-08-24T05:35:15;18.10;99.90
3980;DHT22;2004;52.452;13.120;2023-08-24T05:43:06;18.10;99.90
3980;DHT22;2004;52.452;13.120;2023-08-24T05:50:56;18.20;99.90
3980;DHT22;2004;52.452;13.120;2023-08-24T05:58:47;18.40;99.90
3980;DHT22;2004;52.452;13.120;2023-08-24T06:06:39;18.60;99.90
3980;DHT22;2004;52.452;13.120;2023-08-24T06:14:30;18.70;99.90
3980;DHT22;2004;52.452;13.120;2023-08-24T06:22:21;18.90;99.90
3980;DHT22;2004;52.452;13.120;2023-08-24T06:30:11;19.10;99.90
3980;DHT22;2004;52.452;13.120;2023-08-24T06:38:03;19.20;99.90
3980;DHT22;2004;52.452;13.120;2023-08-24T06:45:54;19.30;99.90
3980;DHT22;2004;52.452;13.120;2023-08-24T06:53:45;19.50;99.90
3980;DHT22;2004;52.452;13.120;2023-08-24T07:01:38;19.70;99.90
3980;DHT22;2004;52.452;13.120;2023-08-24T07:09:29;19.90;99.90
3980;DHT22;2004;52.452;13.120;2023-08-24T07:17:20;20.20;99.90
3980;DHT22;2004;52.452;13.120;2023-08-24T07:25:10;20.40;99.90
3980;DHT22;2004;52.452;13.120;2023-08-24T07:33:03;20.50;99.90
3980;DHT22;2004;52.452;13.120;2023-08-24T07:40:53;20.70;99.90
3980;DHT22;2004;52.452;13.120;2023-08-24T07:48:44;20.80;99.90
3980;DHT22;2004;52.452;13.120;2023-08-24T07:56:35;21.00;99.90
3980;DHT22;2004;52.452;13.120;2023-08-24T08:04:26;21.40;99.90
3980;DHT22;2004;52.452;13.120;2023-08-24T08:12:17;21.60;99.90
3980;DHT22;2004;52.452;13.120;2023-08-24T08:20:08;21.70;99.90
3980;DHT22;2004;52.452;13.120;2023-08-24T08:27:59;21.90;99.90
3980;DHT22;2004;52.452;13.120;2023-08-24T08:35:49;21.90;99.90
3980;DHT22;2004;52.452;13.120;2023-08-24T08:43:41;22.10;99.90
3980;DHT22;2004;52.452;13.120;2023-08-24T08:51:32;22.20;99.90
3980;DHT22;2004;52.452;13.120;2023-08-24T08:59:23;22.30;99.90
3980;DHT22;2004;52.452;13.120;2023-08-24T09:07:16;22.40;99.90
3980;DHT22;2004;52.452;13.120;2023-08-24T09:15:07;22.50;99.90
3980;DHT22;2004;52.452;13.120;2023-08-24T09:22:58;22.60;99.90
3980;DHT22;2004;52.452;13.120;2023-08-24T09:30:53;22.60;99.90
3980;DHT22;2004;52.452;13.120;2023-08-24T09:38:48;22.70;99.90
3980;DHT22;2004;52.452;13.120;2023-08-24T09:46:42;22.80;99.90
3980;DHT22;2004;52.452;13.120;2023-08-24T09:54:38;22.90;99.90
3980;DHT22;2004;52.452;13.120;2023-08-24T10:02:32;23.10;99.90
3980;DHT22;2004;52.452;13.120;2023-08-24T10:10:27;23.20;99.90
3980;DHT22;2004;52.452;13.120;2023-08-24T10:18:20;23.50;99.90
3980;DHT22;2004;52.452;13.120;2023-08-24T10:26:12;23.60;99.90
3980;DHT22;2004;52.452;13.120;2023-08-24T10:34:05;23.80;99.90
3980;DHT22;2004;52.452;13.120;2023-08-24T10:41:56;24.00;99.90
3980;DHT22;2004;52.452;13.120;2023-08-24T10:57:55;24.20;99.90
3980;DHT22;2004;52.452;13.120;2023-08-24T11:05:51;24.40;99.90
3980;DHT22;2004;52.452;13.120;2023-08-24T11:14:18;24.50;99.90
3980;DHT22;2004;52.452;13.120;2023-08-24T11:22:12;24.70;99.90
3980;DHT22;2004;52.452;13.120;2023-08-24T11:30:03;25.00;99.90
3980;DHT22;2004;52.452;13.120;2023-08-24T11:37:56;25.20;99.90
3980;DHT22;2004;52.452;13.120;2023-08-24T11:45:47;25.30;99.90
3980;DHT22;2004;52.452;13.120;2023-08-24T11:53:42;25.50;99.90
3980;DHT22;2004;52.452;13.120;2023-08-24T12:01:32;25.60;99.90
3980;DHT22;2004;52.452;13.120;2023-08-24T12:09:23;25.80;98.40
3980;DHT22;2004;52.452;13.120;2023-08-24T12:17:19;25.90;98.00
3980;DHT22;2004;52.452;13.120;2023-08-24T12:25:10;26.00;96.40
3980;DHT22;2004;52.452;13.120;2023-08-24T12:33:01;26.20;96.40
3980;DHT22;2004;52.452;13.120;2023-08-24T12:40:52;26.40;94.60
3980;DHT22;2004;52.452;13.120;2023-08-24T12:48:43;26.60;95.00
3980;DHT22;2004;52.452;13.120;2023-08-24T12:56:33;26.60;93.30
3980;DHT22;2004;52.452;13.120;2023-08-24T13:04:26;26.70;93.60
3980;DHT22;2004;52.452;13.120;2023-08-24T13:12:18;26.80;93.60
3980;DHT22;2004;52.452;13.120;2023-08-24T13:20:10;26.80;92.20
3980;DHT22;2004;52.452;13.120;2023-08-24T13:28:01;26.80;90.50
3980;DHT22;2004;52.452;13.120;2023-08-24T13:35:51;26.80;92.20
3980;DHT22;2004;52.452;13.120;2023-08-24T13:43:42;26.70;93.10
3980;DHT22;2004;52.452;13.120;2023-08-24T13:51:33;26.70;92.20
3980;DHT22;2004;52.452;13.120;2023-08-24T13:59:23;26.80;92.50
3980;DHT22;2004;52.452;13.120;2023-08-24T14:07:14;26.80;92.10
3980;DHT22;2004;52.452;13.120;2023-08-24T14:15:05;26.70;91.80
3980;DHT22;2004;52.452;13.120;2023-08-24T14:22:56;26.70;92.30
3980;DHT22;2004;52.452;13.120;2023-08-24T14:30:50;26.70;92.20
3980;DHT22;2004;52.452;13.120;2023-08-24T14:38:41;26.70;92.90
3980;DHT22;2004;52.452;13.120;2023-08-24T14:46:32;26.60;92.30
3980;DHT22;2004;52.452;13.120;2023-08-24T14:54:24;26.60;92.60
3980;DHT22;2004;52.452;13.120;2023-08-24T15:02:14;26.60;92.80
3980;DHT22;2004;52.452;13.120;2023-08-24T15:10:06;26.70;91.80
3980;DHT22;2004;52.452;13.120;2023-08-24T15:17:57;26.60;91.80
3980;DHT22;2004;52.452;13.120;2023-08-24T15:25:47;26.60;91.40
3980;DHT22;2004;52.452;13.120;2023-08-24T15:33:38;26.60;90.90
3980;DHT22;2004;52.452;13.120;2023-08-24T15:41:29;26.60;91.50
3980;DHT22;2004;52.452;13.120;2023-08-24T15:49:20;26.50;91.80
3980;DHT22;2004;52.452;13.120;2023-08-24T15:57:13;26.40;91.30
3980;DHT22;2004;52.452;13.120;2023-08-24T16:05:05;26.40;92.20
3980;DHT22;2004;52.452;13.120;2023-08-24T16:12:56;26.40;92.00
3980;DHT22;2004;52.452;13.120;2023-08-24T16:20:46;26.30;92.10
3980;DHT22;2004;52.452;13.120;2023-08-24T16:28:37;26.20;91.60
3980;DHT22;2004;52.452;13.120;2023-08-24T16:36:27;26.10;91.90
3980;DHT22;2004;52.452;13.120;2023-08-24T16:44:18;26.10;92.60
3980;DHT22;2004;52.452;13.120;2023-08-24T16:52:08;26.00;92.10
3980;DHT22;2004;52.452;13.120;2023-08-24T16:59:59;25.80;92.40
3980;DHT22;2004;52.452;13.120;2023-08-24T17:08:04;25.80;93.80
3980;DHT22;2004;52.452;13.120;2023-08-24T17:15:55;25.60;94.60
3980;DHT22;2004;52.452;13.120;2023-08-24T17:23:45;25.50;95.00
3980;DHT22;2004;52.452;13.120;2023-08-24T17:31:36;25.40;95.80
3980;DHT22;2004;52.452;13.120;2023-08-24T17:39:26;25.20;96.40
3980;DHT22;2004;52.452;13.120;2023-08-24T17:47:20;25.00;97.10
3980;DHT22;2004;52.452;13.120;2023-08-24T17:55:11;24.90;97.80
3980;DHT22;2004;52.452;13.120;2023-08-24T18:03:01;24.70;98.70
3980;DHT22;2004;52.452;13.120;2023-08-24T18:10:52;24.50;99.00
3980;DHT22;2004;52.452;13.120;2023-08-24T18:18:42;24.40;98.90
3980;DHT22;2004;52.452;13.120;2023-08-24T18:26:33;24.20;99.20
3980;DHT22;2004;52.452;13.120;2023-08-24T18:34:23;24.00;99.90
3980;DHT22;2004;52.452;13.120;2023-08-24T18:42:15;23.90;99.90
3980;DHT22;2004;52.452;13.120;2023-08-24T18:50:06;23.70;99.90
3980;DHT22;2004;52.452;13.120;2023-08-24T18:57:57;23.60;99.90
3980;DHT22;2004;52.452;13.120;2023-08-24T19:05:47;23.40;99.90
3980;DHT22;2004;52.452;13.120;2023-08-24T19:13:39;23.20;99.90
3980;DHT22;2004;52.452;13.120;2023-08-24T19:21:30;23.10;99.90
3980;DHT22;2004;52.452;13.120;2023-08-24T19:29:21;23.00;99.90
3980;DHT22;2004;52.452;13.120;2023-08-24T19:37:11;22.90;99.90
3980;DHT22;2004;52.452;13.120;2023-08-24T19:45:02;22.70;99.90
3980;DHT22;2004;52.452;13.120;2023-08-24T19:52:52;22.60;99.90
3980;DHT22;2004;52.452;13.120;2023-08-24T20:00:43;22.60;99.90
3980;DHT22;2004;52.452;13.120;2023-08-24T20:08:34;22.50;99.90
3980;DHT22;2004;52.452;13.120;2023-08-24T20:16:24;22.40;99.90
3980;DHT22;2004;52.452;13.120;2023-08-24T20:24:15;22.30;99.90
3980;DHT22;2004;52.452;13.120;2023-08-24T20:32:05;22.30;99.90
3980;DHT22;2004;52.452;13.120;2023-08-24T20:39:56;22.20;99.90
3980;DHT22;2004;52.452;13.120;2023-08-24T20:47:47;22.20;99.90
3980;DHT22;2004;52.452;13.120;2023-08-24T20:55:37;22.20;99.90
3980;DHT22;2004;52.452;13.120;2023-08-24T21:03:28;22.10;99.90
3980;DHT22;2004;52.452;13.120;2023-08-24T21:11:18;22.20;99.90
3980;DHT22;2004;52.452;13.120;2023-08-24T21:19:09;22.20;99.90
3980;DHT22;2004;52.452;13.120;2023-08-24T21:27:00;22.20;99.90
3980;DHT22;2004;52.452;13.120;2023-08-24T21:34:50;22.30;99.90
3980;DHT22;2004;52.452;13.120;2023-08-24T21:42:41;22.30;99.90
3980;DHT22;2004;52.452;13.120;2023-08-24T21:50:32;22.30;99.90
3980;DHT22;2004;52.452;13.120;2023-08-24T21:58:25;22.30;99.90
3980;DHT22;2004;52.452;13.120;2023-08-24T22:06:15;22.30;99.90
3980;DHT22;2004;52.452;13.120;2023-08-24T22:14:06;22.20;99.90
3980;DHT22;2004;52.452;13.120;2023-08-24T22:21:56;22.20;99.90
3980;DHT22;2004;52.452;13.120;2023-08-24T22:29:47;22.20;99.90
3980;DHT22;2004;52.452;13.120;2023-08-24T22:37:37;22.10;99.90
3980;DHT22;2004;52.452;13.120;2023-08-24T22:45:38;22.10;99.90
3980;DHT22;2004;52.452;13.120;2023-08-24T22:53:29;22.20;99.90
3980;DHT22;2004;52.452;13.120;2023-08-24T23:01:20;22.10;99.90
3980;DHT22;2004;52.452;13.120;2023-08-24T23:09:11;22.10;99.90
3980;DHT22;2004;52.452;13.120;2023-08-24T23:17:05;22.00;99.90
3980;DHT22;2004;52.452;13.120;2023-08-24T23:24:56;21.90;99.90
3980;DHT22;2004;52.452;13.120;2023-08-24T23:32:46;21.90;99.90
3980;DHT22;2004;52.452;13.120;2023-08-24T23:40:37;21.90;99.90
3980;DHT22;2004;52.452;13.120;2023-08-24T23:48:28;21.90;99.90
3980;DHT22;2004;52.452;13.120;2023-08-24T23:56:18;21.90;99.90
